Time;durP1;ratioP1;P1;durP2;ratioP2;P2;SDS_P1;SDS_P2;PMS_P1;PMS_P2;Temp;Humidity;BMP_temperature;BMP_pressure;BME280_temperature;BME280_humidity;BME280_pressure;Samples;Min_cycle;Max_cycle;Signal;HPM_P1;HPM_P2
2023/04/10 00:00:23;;;;;;;;;;;;;;;16.50;63.78;101757.41;1043672;28;1011;-64
2023/04/10 00:01:13;;;;;;;;;;;;;;;16.52;64.06;101758.16;1041558;28;702;-64
2023/04/10 00:02:03;;;;;;;;;;;;;;;16.53;64.02;101743.72;1040597;28;698;-64
2023/04/10 00:02:54;;;;;;;;;;;;;;;16.50;63.77;101754.72;1042015;28;1445;-63
2023/04/10 00:03:44;;;;;;;;;;;;;;;16.45;64.27;101751.53;1043792;28;1392;-64
2023/04/10 00:04:35;;;;;;;;;;;;;;;16.43;64.22;101754.34;1044113;28;1547;-64
2023/04/10 00:05:26;;;;;;;;;;;;;;;16.39;64.01;101755.53;1044773;28;1309;-64
2023/04/10 00:06:16;;;;;;;;;;;;;;;16.35;64.09;101750.50;1044128;28;622;-64
2023/04/10 00:07:06;;;;;;;;;;;;;;;16.36;64.55;101760.28;1041382;28;1352;-64
2023/04/10 00:07:57;;;;;;;;;;;;;;;16.35;64.76;101761.25;1039875;28;1440;-64
2023/04/10 00:08:47;;;;;;;;;;;;;;;16.39;64.86;101757.38;1037814;28;1319;-64
2023/04/10 00:09:38;;;;;;;;;;;;;;;16.40;64.72;101749.19;1039630;28;1516;-64
2023/04/10 00:10:30;;;;;;;;;;;;;;;16.41;64.43;101748.22;1040293;28;1451;-64
2023/04/10 00:11:20;;;;;;;;;;;;;;;16.43;64.10;101746.28;1038170;28;1342;-64
2023/04/10 00:12:11;;;;;;;;;;;;;;;16.43;64.43;101743.56;1037597;28;1481;-64
2023/04/10 00:13:03;;;;;;;;;;;;;;;16.37;64.59;101743.16;1040237;28;1338;-64
2023/04/10 00:13:54;;;;;;;;;;;;;;;16.38;64.57;101742.19;1040520;28;1454;-64
2023/04/10 00:14:44;;;;;;;;;;;;;;;16.40;64.52;101743.81;1037091;28;1307;-64
2023/04/10 00:15:35;;;;;;;;;;;;;;;16.42;63.85;101735.63;1038782;28;1433;-64
2023/04/10 00:16:25;;;;;;;;;;;;;;;16.42;64.01;101735.63;1040007;28;1390;-63
2023/04/10 00:17:15;;;;;;;;;;;;;;;16.43;64.20;101734.66;1040957;28;1918;-63
2023/04/10 00:18:06;;;;;;;;;;;;;;;16.38;64.24;101723.38;1040247;28;1113;-63
2023/04/10 00:18:56;;;;;;;;;;;;;;;16.36;64.32;101733.38;1040419;28;1470;-63
2023/04/10 00:19:47;;;;;;;;;;;;;;;16.37;64.33;101724.34;1037936;28;1375;-63
2023/04/10 00:20:37;;;;;;;;;;;;;;;16.37;64.45;101724.34;1039649;28;1509;-63
2023/04/10 00:21:28;;;;;;;;;;;;;;;16.37;64.39;101721.66;1037531;28;1292;-62
2023/04/10 00:22:18;;;;;;;;;;;;;;;16.40;64.24;101724.13;1038637;28;1434;-63
2023/04/10 00:23:08;;;;;;;;;;;;;;;16.38;64.51;101720.69;1037862;28;1566;-63
2023/04/10 00:23:59;;;;;;;;;;;;;;;16.39;64.39;101717.00;1037288;28;1592;-64
2023/04/10 00:24:49;;;;;;;;;;;;;;;16.42;63.93;101714.09;1038800;28;1357;-63
2023/04/10 00:25:40;;;;;;;;;;;;;;;16.43;64.33;101707.75;1039291;28;1497;-63
2023/04/10 00:26:30;;;;;;;;;;;;;;;16.41;63.98;101712.38;1040723;28;1532;-63
2023/04/10 00:27:21;;;;;;;;;;;;;;;16.37;64.12;101706.38;1037457;28;1497;-63
2023/04/10 00:28:11;;;;;;;;;;;;;;;16.33;64.51;101711.13;1036830;28;1309;-64
2023/04/10 00:29:01;;;;;;;;;;;;;;;16.37;63.93;101708.19;1038765;28;1446;-63
2023/04/10 00:29:52;;;;;;;;;;;;;;;16.38;64.55;101704.53;1040282;28;1390;-64
2023/04/10 00:30:42;;;;;;;;;;;;;;;16.37;64.12;101706.38;1040426;28;1432;-63
2023/04/10 00:31:33;;;;;;;;;;;;;;;16.37;63.97;101700.13;1036821;28;1414;-64
2023/04/10 00:32:23;;;;;;;;;;;;;;;16.38;64.51;101699.16;1037985;28;1434;-64
2023/04/10 00:33:14;;;;;;;;;;;;;;;16.37;63.89;101700.13;1037833;28;1357;-64
2023/04/10 00:34:04;;;;;;;;;;;;;;;16.36;64.51;101698.41;1036825;28;1440;-63
2023/04/10 00:34:55;;;;;;;;;;;;;;;16.31;64.21;101696.06;1040089;28;1476;-63
2023/04/10 00:35:45;;;;;;;;;;;;;;;16.33;64.13;101688.72;1040246;28;1398;-64
2023/04/10 00:36:36;;;;;;;;;;;;;;;16.32;64.51;101687.88;1040070;28;1389;-64
2023/04/10 00:37:26;;;;;;;;;;;;;;;16.33;64.31;101689.59;1038790;28;1893;-64
2023/04/10 00:38:17;;;;;;;;;;;;;;;16.32;63.80;101687.88;1037659;28;1434;-64
2023/04/10 00:39:07;;;;;;;;;;;;;;;16.31;64.04;101686.16;1038675;28;1339;-64
2023/04/10 00:39:57;;;;;;;;;;;;;;;16.30;64.41;101689.00;1038220;28;1541;-64
2023/04/10 00:40:48;;;;;;;;;;;;;;;16.30;64.53;101684.44;1040704;28;1404;-64
2023/04/10 00:41:38;;;;;;;;;;;;;;;16.30;64.22;101691.69;1039166;28;1416;-64
2023/04/10 00:42:29;;;;;;;;;;;;;;;16.30;64.39;101689.00;1040387;28;1352;-64
2023/04/10 00:43:20;;;;;;;;;;;;;;;16.32;64.06;101697.78;1038065;28;1339;-64
2023/04/10 00:44:10;;;;;;;;;;;;;;;16.28;64.14;101701.69;1036747;28;1477;-64
2023/04/10 00:45:01;;;;;;;;;;;;;;;16.29;64.39;101692.66;1037581;28;1386;-64
2023/04/10 00:45:51;;;;;;;;;;;;;;;16.29;64.60;101693.50;1036754;28;1346;-64
2023/04/10 00:46:42;;;;;;;;;;;;;;;16.29;64.25;101693.50;1036739;28;610;-63
2023/04/10 00:47:32;;;;;;;;;;;;;;;16.28;64.67;101685.56;1036888;28;1323;-63
2023/04/10 00:48:22;;;;;;;;;;;;;;;16.27;64.22;101683.84;1037958;28;1370;-64
2023/04/10 00:49:13;;;;;;;;;;;;;;;16.26;63.86;101688.38;1037108;28;1330;-63
2023/04/10 00:50:03;;;;;;;;;;;;;;;16.27;64.20;101683.84;1041202;28;1579;-63
2023/04/10 00:50:54;;;;;;;;;;;;;;;16.26;63.65;101682.97;1038024;28;1388;-63
2023/04/10 00:51:44;;;;;;;;;;;;;;;16.27;64.10;101679.31;1037252;28;1408;-63
2023/04/10 00:52:35;;;;;;;;;;;;;;;16.28;64.10;101681.03;1036788;28;1343;-63
2023/04/10 00:53:25;;;;;;;;;;;;;;;16.28;64.12;101682.88;1039970;28;1441;-63
2023/04/10 00:54:16;;;;;;;;;;;;;;;16.28;64.29;101674.81;1040053;28;1395;-63
2023/04/10 00:55:06;;;;;;;;;;;;;;;16.29;64.38;101681.91;1037894;28;1043;-64
2023/04/10 00:55:56;;;;;;;;;;;;;;;16.28;64.19;101683.72;1037542;28;693;-63
2023/04/10 00:56:47;;;;;;;;;;;;;;;16.27;63.89;101684.69;1036800;28;1585;-63
2023/04/10 00:57:37;;;;;;;;;;;;;;;16.25;64.29;101685.78;1038494;28;1959;-63
2023/04/10 00:58:28;;;;;;;;;;;;;;;16.25;63.91;101681.25;1039834;28;1280;-64
2023/04/10 00:59:18;;;;;;;;;;;;;;;16.20;63.91;101682.56;1039509;28;1534;-64
2023/04/10 01:00:09;;;;;;;;;;;;;;;16.22;64.32;101683.31;1033130;28;1339;-64
2023/04/10 01:00:59;;;;;;;;;;;;;;;16.23;64.64;101683.22;1035894;28;888;-63
2023/04/10 01:01:50;;;;;;;;;;;;;;;16.25;64.39;101685.78;1036594;28;629;-63
2023/04/10 01:02:40;;;;;;;;;;;;;;;16.26;63.91;101677.59;1037479;28;755;-63
2023/04/10 01:03:31;;;;;;;;;;;;;;;16.21;64.30;101681.59;1040115;28;1410;-63
2023/04/10 01:04:21;;;;;;;;;;;;;;;16.17;64.64;101678.28;1038166;28;1227;-64
2023/04/10 01:05:12;;;;;;;;;;;;;;;16.17;64.48;101683.66;1039970;28;1471;-64
2023/04/10 01:06:02;;;;;;;;;;;;;;;16.18;64.26;101677.31;1036696;28;1341;-64
2023/04/10 01:06:53;;;;;;;;;;;;;;;16.19;64.10;101675.47;1040634;28;681;-64
2023/04/10 01:07:43;;;;;;;;;;;;;;;16.23;64.32;101666.22;1039742;28;725;-64
2023/04/10 01:08:34;;;;;;;;;;;;;;;16.23;64.26;101676.97;1039850;28;1687;-64
2023/04/10 01:09:24;;;;;;;;;;;;;;;16.22;64.24;101677.94;1039847;28;1299;-64
2023/04/10 01:10:15;;;;;;;;;;;;;;;16.22;64.23;101678.81;1039636;28;1494;-64
2023/04/10 01:11:05;;;;;;;;;;;;;;;16.21;64.45;101679.78;1037906;28;1386;-63
2023/04/10 01:11:57;;;;;;;;;;;;;;;16.23;64.02;101671.59;1038791;28;1504;-63
2023/04/10 01:12:47;;;;;;;;;;;;;;;16.25;64.16;101665.13;1036906;28;1297;-63
2023/04/10 01:13:38;;;;;;;;;;;;;;;16.21;64.25;101669.00;1040309;28;1478;-63
2023/04/10 01:14:28;;;;;;;;;;;;;;;16.15;64.01;101668.59;1039600;28;1438;-63
2023/04/10 01:15:19;;;;;;;;;;;;;;;16.13;65.01;101662.47;1039359;28;1491;-63
2023/04/10 01:16:09;;;;;;;;;;;;;;;16.13;64.38;101659.78;1040022;28;1367;-63
2023/04/10 01:17:00;;;;;;;;;;;;;;;16.13;64.39;101660.66;1040680;28;693;-64
2023/04/10 01:17:50;;;;;;;;;;;;;;;16.11;64.76;101654.56;1039565;28;1369;-63
2023/04/10 01:18:41;;;;;;;;;;;;;;;16.18;64.69;101661.16;1039875;28;914;-63
2023/04/10 01:19:31;;;;;;;;;;;;;;;16.23;64.80;101656.31;1037716;28;1383;-63
2023/04/10 01:20:22;;;;;;;;;;;;;;;16.22;64.61;101653.72;1039914;28;1225;-63
2023/04/10 01:21:12;;;;;;;;;;;;;;;16.22;64.41;101649.22;1037369;28;1299;-63
2023/04/10 01:22:03;;;;;;;;;;;;;;;16.19;64.51;101649.44;1039110;28;1418;-63
2023/04/10 01:22:53;;;;;;;;;;;;;;;16.15;65.03;101656.03;1040446;28;774;-63
2023/04/10 01:23:44;;;;;;;;;;;;;;;16.13;64.65;101654.41;1037241;28;1284;-64
2023/04/10 01:24:34;;;;;;;;;;;;;;;16.15;64.74;101649.78;1036989;28;1445;-64
2023/04/10 01:25:25;;;;;;;;;;;;;;;16.14;64.37;101648.91;1036693;28;1362;-64
2023/04/10 01:26:16;;;;;;;;;;;;;;;16.10;64.65;101644.78;1037327;28;780;-64
2023/04/10 01:27:06;;;;;;;;;;;;;;;16.11;64.64;101643.81;1039790;28;978;-63
2023/04/10 01:27:57;;;;;;;;;;;;;;;16.10;64.55;101639.41;1037915;28;1350;-64
2023/04/10 01:28:47;;;;;;;;;;;;;;;16.09;64.70;101643.06;1037738;28;1462;-62
2023/04/10 01:29:38;;;;;;;;;;;;;;;16.13;64.88;101646.34;1037253;28;1256;-64
2023/04/10 01:30:28;;;;;;;;;;;;;;;16.08;64.71;101641.34;1040631;28;792;-64
2023/04/10 01:31:20;;;;;;;;;;;;;;;16.10;64.51;101644.78;1039930;28;1386;-64
2023/04/10 01:32:10;;;;;;;;;;;;;;;16.07;64.49;101636.94;1037487;28;1300;-64
2023/04/10 01:33:01;;;;;;;;;;;;;;;16.09;64.64;101639.50;1037840;28;665;-64
2023/04/10 01:33:51;;;;;;;;;;;;;;;16.09;64.61;101639.50;1037852;28;1296;-64
2023/04/10 01:34:41;;;;;;;;;;;;;;;16.09;64.64;101636.81;1037257;28;1585;-64
2023/04/10 01:35:32;;;;;;;;;;;;;;;16.08;64.44;101638.66;1037054;28;1366;-64
2023/04/10 01:36:22;;;;;;;;;;;;;;;16.12;64.67;101637.41;1039018;28;1349;-64
2023/04/10 01:37:13;;;;;;;;;;;;;;;16.13;64.79;101638.28;1037841;28;1906;-64
2023/04/10 01:38:03;;;;;;;;;;;;;;;16.13;64.51;101640.97;1039304;28;1489;-64
2023/04/10 01:38:54;;;;;;;;;;;;;;;16.11;64.58;101635.72;1036944;28;1267;-64
2023/04/10 01:39:44;;;;;;;;;;;;;;;16.10;64.63;101622.41;1034136;28;1489;-63
2023/04/10 01:40:34;;;;;;;;;;;;;;;16.11;64.54;101638.44;1039539;28;1059;-63
2023/04/10 01:41:25;;;;;;;;;;;;;;;16.12;64.63;101629.34;1039590;28;1616;-63
2023/04/10 01:42:15;;;;;;;;;;;;;;;16.12;64.19;101634.72;1036487;28;1072;-63
2023/04/10 01:43:06;;;;;;;;;;;;;;;16.11;64.42;101633.03;1040078;28;665;-63
2023/04/10 01:43:56;;;;;;;;;;;;;;;16.11;64.40;101632.19;1037738;28;997;-63
2023/04/10 01:44:47;;;;;;;;;;;;;;;16.10;64.50;101633.16;1037131;28;599;-63
2023/04/10 01:45:37;;;;;;;;;;;;;;;16.13;64.27;101624.84;1035830;28;1321;-63
2023/04/10 01:46:28;;;;;;;;;;;;;;;16.08;64.51;101630.59;1038866;28;1268;-63
2023/04/10 01:47:18;;;;;;;;;;;;;;;16.10;64.73;101622.41;1037378;28;754;-64
2023/04/10 01:48:09;;;;;;;;;;;;;;;16.10;64.39;101623.25;1037774;28;1216;-63
2023/04/10 01:48:59;;;;;;;;;;;;;;;16.09;64.25;101626.94;1036371;28;1513;-64
2023/04/10 01:49:50;;;;;;;;;;;;;;;16.08;64.41;101630.59;1039737;28;1224;-63
2023/04/10 01:50:40;;;;;;;;;;;;;;;16.10;64.45;101627.78;1037863;28;1486;-63
2023/04/10 01:51:31;;;;;;;;;;;;;;;16.08;64.68;101627.03;1037072;28;748;-63
2023/04/10 01:52:21;;;;;;;;;;;;;;;16.09;64.79;101629.63;1038453;28;1340;-64
2023/04/10 01:53:12;;;;;;;;;;;;;;;16.07;64.67;101623.50;1039155;28;1462;-63
2023/04/10 01:54:02;;;;;;;;;;;;;;;16.07;64.71;101623.50;1040809;28;1379;-64
2023/04/10 01:54:53;;;;;;;;;;;;;;;16.03;64.90;101621.13;1039213;28;1418;-64
2023/04/10 01:55:43;;;;;;;;;;;;;;;16.00;64.72;101622.22;1040567;28;690;-63
2023/04/10 01:56:34;;;;;;;;;;;;;;;15.96;64.67;101618.91;1039463;28;1322;-63
2023/04/10 01:57:24;;;;;;;;;;;;;;;15.94;65.09;101611.94;1037786;28;2007;-64
2023/04/10 01:58:15;;;;;;;;;;;;;;;15.93;65.06;101612.94;1036508;28;1530;-63
2023/04/10 01:59:05;;;;;;;;;;;;;;;15.96;64.92;101615.34;1032676;28;766;-63
2023/04/10 01:59:56;;;;;;;;;;;;;;;15.94;64.88;101611.94;1033348;28;654;-63
2023/04/10 02:00:46;;;;;;;;;;;;;;;15.97;64.95;101609.00;1040667;28;555;-63
2023/04/10 02:01:37;;;;;;;;;;;;;;;15.98;64.60;101616.09;1036612;28;1395;-63
2023/04/10 02:02:27;;;;;;;;;;;;;;;16.00;64.81;101616.84;1039876;28;1460;-63
2023/04/10 02:03:17;;;;;;;;;;;;;;;16.03;64.84;101615.75;1039396;28;1357;-63
2023/04/10 02:04:08;;;;;;;;;;;;;;;16.03;64.65;101613.94;1037939;28;1394;-63
2023/04/10 02:04:58;;;;;;;;;;;;;;;16.05;64.98;101616.50;1038014;28;1312;-63
2023/04/10 02:05:49;;;;;;;;;;;;;;;16.05;64.61;101612.00;1037968;28;1387;-64
2023/04/10 02:06:39;;;;;;;;;;;;;;;16.06;64.69;101616.41;1037816;28;1299;-63
2023/04/10 02:07:30;;;;;;;;;;;;;;;16.05;64.57;101616.50;1041552;28;1408;-64
2023/04/10 02:08:20;;;;;;;;;;;;;;;16.03;64.93;101610.38;1043161;28;1390;-63
2023/04/10 02:09:11;;;;;;;;;;;;;;;16.03;64.49;101621.13;1042690;28;1368;-64
2023/04/10 02:10:01;;;;;;;;;;;;;;;16.03;64.92;101613.06;1043866;28;1441;-63
2023/04/10 02:10:52;;;;;;;;;;;;;;;16.03;64.64;101615.75;1044180;28;1593;-64
2023/04/10 02:11:42;;;;;;;;;;;;;;;15.97;64.96;101612.56;1044728;28;626;-63
2023/04/10 02:12:33;;;;;;;;;;;;;;;15.98;64.86;101614.28;1040614;28;630;-63
2023/04/10 02:13:23;;;;;;;;;;;;;;;16.00;64.66;101613.31;1042526;28;1320;-64
2023/04/10 02:14:13;;;;;;;;;;;;;;;16.00;64.82;101618.69;1044050;28;1449;-64
2023/04/10 02:15:05;;;;;;;;;;;;;;;15.98;64.68;101619.66;1043657;28;1460;-64
2023/04/10 02:15:56;;;;;;;;;;;;;;;15.96;64.71;101615.34;1043799;28;1461;-64
2023/04/10 02:16:47;;;;;;;;;;;;;;;15.96;64.67;101613.53;1042430;28;1333;-64
2023/04/10 02:17:37;;;;;;;;;;;;;;;15.95;64.68;101613.63;1042608;28;1913;-64
2023/04/10 02:18:27;;;;;;;;;;;;;;;15.95;64.92;101608.25;1041295;28;1294;-64
2023/04/10 02:19:18;;;;;;;;;;;;;;;15.98;64.75;101608.03;1043755;28;1505;-64
2023/04/10 02:20:08;;;;;;;;;;;;;;;16.01;64.65;101601.56;1045626;28;908;-64
2023/04/10 02:20:59;;;;;;;;;;;;;;;15.98;64.86;101608.91;1041314;28;804;-64
2023/04/10 02:21:50;;;;;;;;;;;;;;;15.98;64.73;101610.72;1043443;28;1271;-64
2023/04/10 02:22:42;;;;;;;;;;;;;;;15.96;64.71;101601.91;1042321;28;684;-64
2023/04/10 02:23:33;;;;;;;;;;;;;;;15.96;65.08;101609.97;1044227;28;1293;-64
2023/04/10 02:24:23;;;;;;;;;;;;;;;15.98;64.85;101608.03;1045519;28;782;-64
2023/04/10 02:25:14;;;;;;;;;;;;;;;15.96;64.53;101604.59;1044269;28;1281;-64
2023/04/10 02:26:04;;;;;;;;;;;;;;;15.97;64.70;101609.00;1043710;28;1459;-63
2023/04/10 02:26:55;;;;;;;;;;;;;;;15.99;64.64;101604.38;1042017;28;606;-62
2023/04/10 02:27:45;;;;;;;;;;;;;;;15.94;64.73;101601.19;1045037;28;705;-64
2023/04/10 02:28:36;;;;;;;;;;;;;;;15.92;65.02;101604.00;1044534;28;766;-62
2023/04/10 02:29:26;;;;;;;;;;;;;;;15.91;64.97;101599.59;1042993;28;1295;-64
2023/04/10 02:30:17;;;;;;;;;;;;;;;15.93;65.01;101599.47;1044942;28;721;-64
2023/04/10 02:31:07;;;;;;;;;;;;;;;15.95;64.62;101608.25;1041881;28;645;-63
2023/04/10 02:31:58;;;;;;;;;;;;;;;15.95;65.11;101601.06;1045990;28;668;-63
2023/04/10 02:32:48;;;;;;;;;;;;;;;15.93;64.83;101608.41;1044082;28;626;-64
2023/04/10 02:33:38;;;;;;;;;;;;;;;15.90;64.68;101602.41;1045056;28;1440;-64
2023/04/10 02:34:29;;;;;;;;;;;;;;;15.93;64.93;101605.72;1043358;28;1389;-64
2023/04/10 02:35:19;;;;;;;;;;;;;;;15.94;64.83;101601.19;1044495;28;1550;-65
2023/04/10 02:36:10;;;;;;;;;;;;;;;15.94;64.45;101603.88;1041538;28;692;-64
2023/04/10 02:37:00;;;;;;;;;;;;;;;15.91;64.71;101596.06;1041251;28;1277;-64
2023/04/10 02:37:51;;;;;;;;;;;;;;;15.90;64.87;101599.72;1041959;28;1476;-63
2023/04/10 02:38:41;;;;;;;;;;;;;;;15.89;64.97;101601.53;1042936;28;1136;-64
2023/04/10 02:39:32;;;;;;;;;;;;;;;15.91;64.72;101596.06;1041587;28;1382;-64
2023/04/10 02:40:22;;;;;;;;;;;;;;;15.88;64.91;101598.97;1044110;28;1392;-64
2023/04/10 02:41:13;;;;;;;;;;;;;;;15.85;64.94;101597.34;1042771;28;1492;-63
2023/04/10 02:42:03;;;;;;;;;;;;;;;15.85;65.10;101596.50;1043646;28;1305;-64
2023/04/10 02:42:53;;;;;;;;;;;;;;;15.87;64.71;101603.47;1041855;28;748;-64
2023/04/10 02:43:44;;;;;;;;;;;;;;;15.88;64.86;101597.13;1042931;28;702;-64
2023/04/10 02:44:35;;;;;;;;;;;;;;;15.87;64.94;101605.31;1044785;28;634;-64
2023/04/10 02:45:25;;;;;;;;;;;;;;;15.87;64.59;101597.25;1043572;28;1432;-64
2023/04/10 02:46:15;;;;;;;;;;;;;;;15.86;64.96;101601.75;1044868;28;1222;-64
2023/04/10 02:47:06;;;;;;;;;;;;;;;15.87;64.77;101606.16;1041043;28;667;-64
2023/04/10 02:47:56;;;;;;;;;;;;;;;15.88;64.97;101605.19;1042110;28;1361;-64
2023/04/10 02:48:47;;;;;;;;;;;;;;;15.84;64.92;101600.16;1044871;28;1487;-64
2023/04/10 02:49:37;;;;;;;;;;;;;;;15.85;65.15;101608.09;1042377;28;689;-64
2023/04/10 02:50:30;;;;;;;;;;;;;;;15.86;65.00;101606.28;1041323;28;1431;-63
2023/04/10 02:51:21;;;;;;;;;;;;;;;15.87;64.59;101605.31;1043146;28;1293;-64
2023/04/10 02:52:11;;;;;;;;;;;;;;;15.84;64.82;101610.91;1044245;28;1486;-64
2023/04/10 02:53:02;;;;;;;;;;;;;;;15.82;64.95;101611.03;1044196;28;1059;-64
2023/04/10 02:53:52;;;;;;;;;;;;;;;15.82;64.91;101610.16;1042906;28;807;-63
2023/04/10 02:54:43;;;;;;;;;;;;;;;15.82;64.74;101612.84;1044614;28;768;-64
2023/04/10 02:55:33;;;;;;;;;;;;;;;15.84;65.06;101614.47;1041323;28;1381;-64
2023/04/10 02:56:24;;;;;;;;;;;;;;;15.84;65.02;101610.91;1042903;28;662;-64
2023/04/10 02:57:15;;;;;;;;;;;;;;;15.86;65.08;101614.34;1043927;28;1043;-62
2023/04/10 02:58:05;;;;;;;;;;;;;;;15.84;64.65;101614.47;1043631;28;1439;-63
2023/04/10 02:58:56;;;;;;;;;;;;;;;15.87;64.57;101613.38;1042349;28;1300;-63
2023/04/10 02:59:47;;;;;;;;;;;;;;;15.88;64.89;101609.72;1041746;28;1547;-64
2023/04/10 03:00:38;;;;;;;;;;;;;;;15.87;64.92;101616.06;1042949;28;1318;-63
2023/04/10 03:01:28;;;;;;;;;;;;;;;15.87;64.79;101610.69;1042970;28;1530;-63
2023/04/10 03:02:19;;;;;;;;;;;;;;;15.82;64.41;101612.84;1044579;28;1436;-64
2023/04/10 03:03:09;;;;;;;;;;;;;;;15.80;65.10;101620.16;1041887;28;1467;-63
2023/04/10 03:04:01;;;;;;;;;;;;;;;15.78;64.92;101617.59;1041404;28;1317;-63
2023/04/10 03:04:52;;;;;;;;;;;;;;;15.77;65.27;101612.31;1041183;28;1435;-64
2023/04/10 03:05:42;;;;;;;;;;;;;;;15.77;64.44;101606.94;1041229;28;746;-64
2023/04/10 03:06:33;;;;;;;;;;;;;;;15.79;65.02;101613.06;1044168;28;1298;-64
2023/04/10 03:07:23;;;;;;;;;;;;;;;15.80;65.04;101604.91;1041144;28;1399;-64
2023/04/10 03:08:14;;;;;;;;;;;;;;;15.84;64.85;101605.53;1044233;28;1018;-64
2023/04/10 03:09:05;;;;;;;;;;;;;;;15.79;65.04;101607.69;1041869;28;1371;-64
2023/04/10 03:09:55;;;;;;;;;;;;;;;15.78;64.70;101605.97;1044802;28;916;-64
2023/04/10 03:10:47;;;;;;;;;;;;;;;15.78;65.01;101603.28;1043093;28;1432;-65
2023/04/10 03:11:37;;;;;;;;;;;;;;;15.76;65.13;101611.50;1043582;28;1499;-64
2023/04/10 03:12:28;;;;;;;;;;;;;;;15.76;64.88;101613.34;1042315;28;992;-63
2023/04/10 03:13:18;;;;;;;;;;;;;;;15.78;64.98;101603.28;1045391;28;713;-63
2023/04/10 03:14:09;;;;;;;;;;;;;;;15.79;64.77;101610.38;1042587;28;1396;-63
2023/04/10 03:14:59;;;;;;;;;;;;;;;15.78;64.81;101605.97;1041240;28;1373;-63
2023/04/10 03:15:49;;;;;;;;;;;;;;;15.77;64.88;101612.31;1044608;28;1484;-64
2023/04/10 03:16:40;;;;;;;;;;;;;;;15.76;65.18;101611.50;1045832;28;717;-64
2023/04/10 03:17:30;;;;;;;;;;;;;;;15.77;65.06;101609.63;1043055;28;1910;-64
2023/04/10 03:18:21;;;;;;;;;;;;;;;15.76;65.12;101605.28;1041361;28;1353;-63
2023/04/10 03:19:11;;;;;;;;;;;;;;;15.74;65.08;101609.91;1040694;28;1407;-64
2023/04/10 03:20:02;;;;;;;;;;;;;;;15.72;65.23;101611.84;1043840;28;1526;-64
2023/04/10 03:20:52;;;;;;;;;;;;;;;15.74;65.19;101610.75;1042472;28;1298;-64
2023/04/10 03:21:43;;;;;;;;;;;;;;;15.75;64.81;101603.56;1041900;28;1315;-64
2023/04/10 03:22:33;;;;;;;;;;;;;;;15.77;65.10;101612.31;1043834;28;1299;-64
2023/04/10 03:23:24;;;;;;;;;;;;;;;15.77;65.29;101613.19;1041202;28;1298;-64
2023/04/10 03:24:15;;;;;;;;;;;;;;;15.76;64.97;101610.66;1044250;28;1492;-64
2023/04/10 03:25:05;;;;;;;;;;;;;;;15.74;64.96;101604.53;1041287;28;1316;-64
2023/04/10 03:25:55;;;;;;;;;;;;;;;15.72;64.93;101607.31;1041835;28;1384;-64
2023/04/10 03:26:46;;;;;;;;;;;;;;;15.74;64.95;101609.91;1042370;28;1573;-63
2023/04/10 03:27:36;;;;;;;;;;;;;;;15.77;65.00;101604.25;1041937;28;1317;-63
2023/04/10 03:28:28;;;;;;;;;;;;;;;15.77;65.33;101598.88;1041657;28;1471;-64
2023/04/10 03:29:19;;;;;;;;;;;;;;;15.75;65.01;101599.03;1043965;28;1398;-64
2023/04/10 03:30:10;;;;;;;;;;;;;;;15.75;64.95;101599.03;1045140;28;928;-63
2023/04/10 03:31:00;;;;;;;;;;;;;;;15.78;64.95;101590.72;1041638;28;1435;-63
2023/04/10 03:31:50;;;;;;;;;;;;;;;15.77;64.93;101594.38;1042367;28;1446;-63
2023/04/10 03:32:41;;;;;;;;;;;;;;;15.78;64.95;101587.16;1042912;28;1402;-64
2023/04/10 03:33:32;;;;;;;;;;;;;;;15.76;64.96;101586.47;1045488;28;942;-63
2023/04/10 03:34:22;;;;;;;;;;;;;;;15.73;64.96;101589.38;1045154;28;1610;-63
2023/04/10 03:35:13;;;;;;;;;;;;;;;15.74;64.76;101599.16;1041575;28;1444;-64
2023/04/10 03:36:03;;;;;;;;;;;;;;;15.76;64.87;101586.47;1041078;28;1363;-63
2023/04/10 03:36:54;;;;;;;;;;;;;;;15.71;65.12;101586.78;1041664;28;716;-63
2023/04/10 03:37:44;;;;;;;;;;;;;;;15.72;64.93;101584.97;1044471;28;1898;-63
2023/04/10 03:38:35;;;;;;;;;;;;;;;15.74;64.54;101588.41;1042194;28;626;-63
2023/04/10 03:39:25;;;;;;;;;;;;;;;15.72;65.12;101585.81;1039426;28;610;-62
2023/04/10 03:40:15;;;;;;;;;;;;;;;15.74;65.00;101588.41;1041800;28;700;-63
2023/04/10 03:41:06;;;;;;;;;;;;;;;15.74;64.99;101585.72;1041315;28;1274;-63
2023/04/10 03:41:56;;;;;;;;;;;;;;;15.72;65.22;101590.34;1042995;28;1491;-63
2023/04/10 03:42:47;;;;;;;;;;;;;;;15.74;64.89;101583.03;1041323;28;1273;-64
2023/04/10 03:43:37;;;;;;;;;;;;;;;15.76;65.00;101586.47;1043243;28;1546;-63
2023/04/10 03:44:28;;;;;;;;;;;;;;;15.76;64.74;101587.31;1044501;28;1389;-64
2023/04/10 03:45:18;;;;;;;;;;;;;;;15.75;64.52;101585.59;1044831;28;1507;-64
2023/04/10 03:46:08;;;;;;;;;;;;;;;15.74;65.31;101591.94;1043855;28;750;-64
2023/04/10 03:46:59;;;;;;;;;;;;;;;15.73;64.78;101586.69;1042858;28;677;-63
2023/04/10 03:47:49;;;;;;;;;;;;;;;15.74;65.40;101577.66;1044013;28;1154;-63
2023/04/10 03:48:40;;;;;;;;;;;;;;;15.74;64.97;101577.66;1040962;28;610;-63
2023/04/10 03:49:30;;;;;;;;;;;;;;;15.75;65.11;101580.22;1043935;28;857;-63
2023/04/10 03:50:21;;;;;;;;;;;;;;;15.74;65.27;101581.19;1045705;28;678;-63
2023/04/10 03:51:11;;;;;;;;;;;;;;;15.73;65.91;101578.63;1042867;28;1441;-63
2023/04/10 03:52:02;;;;;;;;;;;;;;;15.73;65.02;101576.78;1042327;28;598;-63
2023/04/10 03:52:52;;;;;;;;;;;;;;;15.71;65.15;101577.88;1041016;28;1156;-63
2023/04/10 03:53:42;;;;;;;;;;;;;;;15.72;65.25;101575.06;1044784;28;1485;-63
2023/04/10 03:54:33;;;;;;;;;;;;;;;15.72;65.05;101576.91;1041536;28;1357;-63
2023/04/10 03:55:23;;;;;;;;;;;;;;;15.71;64.92;101569.81;1041340;28;603;-63
2023/04/10 03:56:14;;;;;;;;;;;;;;;15.65;65.29;101573.81;1043736;28;1388;-63
2023/04/10 03:57:04;;;;;;;;;;;;;;;15.69;65.15;101566.38;1043482;28;1455;-63
2023/04/10 03:57:55;;;;;;;;;;;;;;;15.69;65.18;101566.38;1041609;28;694;-63
2023/04/10 03:58:45;;;;;;;;;;;;;;;15.69;65.23;101563.69;1041165;28;678;-63
2023/04/10 03:59:36;;;;;;;;;;;;;;;15.70;65.02;101566.25;1044838;28;1091;-64
2023/04/10 04:00:26;;;;;;;;;;;;;;;15.70;64.88;101558.19;1045484;28;717;-63
2023/04/10 04:01:16;;;;;;;;;;;;;;;15.69;64.89;101559.16;1045679;28;642;-64
2023/04/10 04:02:07;;;;;;;;;;;;;;;15.71;65.26;101565.28;1045030;28;1487;-64
2023/04/10 04:02:59;;;;;;;;;;;;;;;15.68;64.81;101561.97;1041397;28;1262;-63
2023/04/10 04:03:50;;;;;;;;;;;;;;;15.70;65.29;101560.03;1041481;28;1275;-64
2023/04/10 04:04:40;;;;;;;;;;;;;;;15.69;65.33;101558.31;1041240;28;680;-63
2023/04/10 04:05:30;;;;;;;;;;;;;;;15.69;64.81;101559.16;1044059;28;1258;-63
2023/04/10 04:06:21;;;;;;;;;;;;;;;15.67;65.10;101555.75;1041441;28;1388;-64
2023/04/10 04:07:12;;;;;;;;;;;;;;;15.69;64.85;101563.69;1044030;28;1290;-64
2023/04/10 04:08:05;;;;;;;;;;;;;;;15.69;65.06;101558.31;1045156;28;1330;-63
2023/04/10 04:08:55;;;;;;;;;;;;;;;15.66;64.98;101555.84;1044898;28;1416;-63
2023/04/10 04:09:46;;;;;;;;;;;;;;;15.63;65.23;101563.16;1042801;28;1456;-65
2023/04/10 04:10:37;;;;;;;;;;;;;;;15.65;65.10;101556.81;1042086;28;1365;-64
2023/04/10 04:11:27;;;;;;;;;;;;;;;15.60;65.26;101560.69;1041441;28;1285;-64
2023/04/10 04:12:18;;;;;;;;;;;;;;;15.57;65.24;101560.09;1041240;28;1360;-64
2023/04/10 04:13:08;;;;;;;;;;;;;;;15.58;65.34;101562.69;1044436;28;1367;-64
2023/04/10 04:13:58;;;;;;;;;;;;;;;15.61;65.15;101557.03;1042255;28;1424;-64
2023/04/10 04:14:49;;;;;;;;;;;;;;;15.63;65.13;101559.63;1041544;28;1409;-64
2023/04/10 04:15:39;;;;;;;;;;;;;;;15.66;65.46;101555.84;1041273;28;1479;-64
2023/04/10 04:16:30;;;;;;;;;;;;;;;15.68;65.05;101545.84;1042257;28;666;-64
2023/04/10 04:17:20;;;;;;;;;;;;;;;15.68;65.00;101556.59;1043944;28;1902;-64
2023/04/10 04:18:11;;;;;;;;;;;;;;;15.69;64.99;101550.25;1045103;28;1375;-63
2023/04/10 04:19:01;;;;;;;;;;;;;;;15.67;64.98;101554.88;1043467;28;1386;-63
2023/04/10 04:19:52;;;;;;;;;;;;;;;15.66;64.83;101554.03;1040619;28;1435;-63
2023/04/10 04:20:42;;;;;;;;;;;;;;;15.65;64.91;101557.69;1043182;28;1385;-63
2023/04/10 04:21:32;;;;;;;;;;;;;;;15.63;65.04;101552.41;1044620;28;1393;-64
2023/04/10 04:22:23;;;;;;;;;;;;;;;15.65;64.86;101552.31;1041562;28;757;-63
2023/04/10 04:23:13;;;;;;;;;;;;;;;15.65;65.05;101554.13;1040869;28;1310;-63